• Join FlightAware (Why Join?)
  • Login
  • US Flag 
 
08:32PM EST


 

Airport Tracker/Info


-or-


 

Live Flight TrackerFlight Track Log ✈ AAL2007 ✈ 24-Apr-2013 ✈ KORD - KAUS

Flight Track Log - Related Links

Times and Time Zones

All times are in EDT time to prevent confusion due to time zone crossing. See the AAL2007 flight status page for this flight to view local times or setup timezone preferences in your user account.

Time Position Orientation Groundspeed Altitude Reporting Facility
EDT Latitude Longitude Course Direction KTS MPH feet Rate Location/Type
06:46PM 41.9333 -87.9167 194° South 167 192 2,200  Level Chicago TRACON
06:47PM 41.8833 -87.9500 206° Southwest 222 255 4,400 1,320 Climbing Chicago TRACON
06:48PM 41.7436 -88.1451 201° Southwest  Level Estimated
06:48PM 41.8211 -87.9667 191° South 226 260 5,200  Level Chicago Center
06:49PM 41.6641 -88.2243 197° South  Level Estimated
06:49PM 41.7364 -87.9908 192° South 255 293 8,700  Level Chicago Center
06:50PM 41.5678 -88.1932 166° South  Level FlightAware Approximate
06:50PM 41.6669 -88.0278 202° Southwest 270 311 11,700  Level Chicago Center
06:51PM 41.4887 -88.2726 194° South  Level Estimated
06:51PM 41.5950 -88.0714 204° Southwest 285 328 14,300  Level Chicago Center
06:52PM 41.5194 -88.1147 203° Southwest 298 343 17,100 2,640 Climbing Chicago Center
06:53PM 41.4283 -88.1647 202° Southwest 305 351 19,800 2,220 Climbing Chicago Center
06:54PM 41.3481 -88.2064 201° Southwest 317 365 21,700 1,800 Climbing Chicago Center
06:55PM 41.2631 -88.2439 198° South 325 374 23,600 1,740 Climbing Chicago Center
06:56PM 41.1775 -88.2831 199° South 328 377 25,400 1,620 Climbing Chicago Center
06:57PM 41.0769 -88.3358 202° Southwest 326 375 27,000 900 Climbing Chicago Center
06:58PM 41.0108 -88.4183 223° Southwest 326 375 27,300 240 Climbing Chicago Center
06:59PM 40.9292 -88.4981 216° Southwest 359 413 27,500 840 Climbing Chicago Center
07:01PM 40.8436 -88.5839 217° Southwest 385 443 29,100 1,500 Climbing Chicago Center
07:02PM 40.7592 -88.6669 217° Southwest 382 440 30,600 1,200 Climbing Chicago Center
07:03PM 40.6583 -88.7669 217° Southwest 380 437 31,700 660 Climbing Chicago Center
07:04PM 40.5764 -88.8469 217° Southwest 372 428 32,000 120 Climbing Chicago Center
07:05PM 40.5000 -88.9222 217° Southwest 375 432 32,000  Level Chicago Center
07:06PM 40.4161 -89.0033 216° Southwest 374 430 32,100  Climbing Chicago Center
07:07PM 40.3178 -89.0989 217° Southwest 367 422 32,000 -60 Descending Chicago Center
07:08PM 40.2364 -89.1786 217° Southwest 365 420 32,000  Level Chicago Center
07:09PM 40.1550 -89.2553 216° Southwest 362 417 32,000  Level Chicago Center
07:10PM 40.0889 -89.3203 217° Southwest 361 415 32,000  Level Kansas City Center
07:11PM 40.0086 -89.3978 216° Southwest 360 414 32,000  Level Kansas City Center
07:12PM 39.9278 -89.4761 217° Southwest 359 413 32,000  Level Kansas City Center
07:13PM 39.8467 -89.5528 216° Southwest 360 414 32,100  Climbing Kansas City Center
07:14PM 39.7508 -89.6464 217° Southwest 359 413 32,100  Level Kansas City Center
07:15PM 39.6708 -89.7231 216° Southwest 351 404 32,100 -60 Level Kansas City Center
07:16PM 39.5925 -89.7967 216° Southwest 348 400 32,000 -60 Descending Kansas City Center
07:17PM 39.5158 -89.8692 216° Southwest 344 396 32,000 -60 Level Kansas City Center
07:18PM 39.4403 -89.9406 216° Southwest 339 390 31,900 -60 Descending Kansas City Center
07:19PM 39.3653 -90.0111 216° Southwest 336 387 31,900  Level Kansas City Center
07:20PM 39.2906 -90.0811 216° Southwest 334 384 32,000  Climbing Kansas City Center
07:21PM 39.2017 -90.1658 216° Southwest 332 382 32,000  Level Kansas City Center
07:22PM 39.1261 -90.2367 216° Southwest 334 384 32,000  Level Kansas City Center
07:23PM 39.0514 -90.3058 216° Southwest 334 384 32,100  Climbing Kansas City Center
07:24PM 38.9772 -90.3753 216° Southwest 333 383 32,000 -60 Descending Kansas City Center
07:25PM 38.8997 -90.4469 216° Southwest 330 380 32,000 -60 Level Kansas City Center
07:26PM 38.8272 -90.5203 218° Southwest 331 381 31,900  Descending Kansas City Center
07:27PM 38.7464 -90.6142 222° Southwest 326 375 32,000  Climbing Kansas City Center
07:28PM 38.6786 -90.6922 222° Southwest 326 375 32,000  Level Kansas City Center
07:29PM 38.6186 -90.7608 222° Southwest 328 377 32,100  Climbing Kansas City Center
07:30PM 38.5372 -90.8556 222° Southwest 331 381 32,000 -60 Descending Kansas City Center
07:31PM 38.4683 -90.9347 222° Southwest 332 382 32,000  Level Kansas City Center
07:32PM 38.3989 -91.0131 221° Southwest 336 387 32,000  Level Kansas City Center
07:33PM 38.3300 -91.0911 222° Southwest 331 381 32,000 -60 Level Kansas City Center
07:34PM 38.2614 -91.1697 222° Southwest 332 382 31,900  Descending Kansas City Center
07:36PM 38.1917 -91.2486 222° Southwest 335 386 32,000  Climbing Kansas City Center
07:37PM 38.1081 -91.3428 222° Southwest 338 389 32,000  Level Kansas City Center
07:38PM 38.0375 -91.4231 222° Southwest 339 390 32,100  Climbing Kansas City Center
07:39PM 37.9667 -91.5047 222° Southwest 339 390 32,100  Level Kansas City Center
07:40PM 37.8950 -91.5853 222° Southwest 341 392 32,100 -120 Level Kansas City Center
07:41PM 37.8233 -91.6642 221° Southwest 339 390 31,900 -120 Descending Kansas City Center
07:42PM 37.7497 -91.7472 222° Southwest 347 399 31,900  Level Kansas City Center
07:43PM 37.6778 -91.8264 221° Southwest 343 395 31,900 60 Level Kansas City Center
07:44PM 37.6047 -91.9078 221° Southwest 346 398 32,100 60 Climbing Kansas City Center
07:45PM 37.5161 -92.0072 222° Southwest 351 404 32,100  Level Kansas City Center
07:46PM 37.4431 -92.0883 221° Southwest 349 402 32,100 -60 Level Kansas City Center
07:47PM 37.3700 -92.1692 221° Southwest 348 400 32,000 -120 Descending Kansas City Center
07:48PM 37.2978 -92.2483 221° Southwest 345 397 31,900 -60 Descending Kansas City Center
07:49PM 37.2239 -92.3283 221° Southwest 346 398 31,900  Level Kansas City Center
07:50PM 37.1500 -92.4100 221° Southwest 349 402 32,000 60 Climbing Kansas City Center
07:51PM 37.0739 -92.4933 221° Southwest 358 412 32,100  Climbing Kansas City Center
07:52PM 36.9992 -92.5747 221° Southwest 355 409 32,100  Level Kansas City Center
07:53PM 36.9242 -92.6556 221° Southwest 355 409 32,100 -60 Level Kansas City Center
07:54PM 36.8339 -92.7519 221° Southwest 355 409 32,000 -120 Descending Kansas City Center
07:54PM 36.8019 -92.7900 224° Southwest 357 411 32,000  Level Memphis Center
07:55PM 36.7294 -92.8706 222° Southwest 357 411 32,000  Level Memphis Center
07:56PM 36.6508 -92.9508 219° Southwest 363 418 32,000  Level Memphis Center
07:57PM 36.5761 -93.0314 221° Southwest 363 418 32,000  Level Memphis Center
07:58PM 36.5014 -93.1139 222° Southwest 363 418 32,100  Climbing Memphis Center
07:59PM 36.4311 -93.1839 219° Southwest 368 423 32,100 -60 Level Memphis Center
08:00PM 36.3561 -93.2664 222° Southwest 368 423 32,000 -60 Descending Memphis Center
08:01PM 36.2792 -93.3458 220° Southwest 368 423 32,000  Level Memphis Center
08:02PM 36.2022 -93.4253 220° Southwest 368 423 32,000  Level Memphis Center
08:03PM 36.1272 -93.5047 221° Southwest 368 423 32,000  Level Memphis Center
08:04PM 36.0503 -93.5842 220° Southwest 368 423 32,000  Level Memphis Center
08:05PM 35.9750 -93.6658 221° Southwest 368 423 32,100  Climbing Memphis Center
08:06PM 35.8978 -93.7472 220° Southwest 368 423 32,000 -60 Descending Memphis Center
08:07PM 35.8183 -93.8283 220° Southwest 368 423 32,000  Level Memphis Center
08:08PM 35.7411 -93.9097 221° Southwest 368 423 32,000  Level Memphis Center
08:09PM 35.6639 -93.9856 219° Southwest 368 423 32,000  Level Memphis Center
08:10PM 35.5864 -94.0664 220° Southwest 368 423 32,000  Level Memphis Center
08:11PM 35.5067 -94.1469 219° Southwest 368 423 32,000  Level Memphis Center
08:12PM 35.4292 -94.2275 220° Southwest 374 430 32,000  Level Memphis Center
08:13PM 35.3456 -94.3025 216° Southwest 374 430 32,000  Level Memphis Center
08:14PM 35.2536 -94.3719 212° Southwest 380 437 32,000  Level Memphis Center
08:15PM 35.1658 -94.4414 213° Southwest 385 443 32,100  Climbing Memphis Center
08:16PM 35.0781 -94.5081 212° Southwest 380 437 32,100 -60 Level Memphis Center
08:17PM 35.0008 -94.5697 213° Southwest 381 438 32,000 -60 Descending Fort Worth Center
08:18PM 34.9106 -94.6411 213° Southwest 387 445 32,000  Level Fort Worth Center
08:19PM 34.8306 -94.7019 212° Southwest 387 445 32,000  Level Fort Worth Center
08:20PM 34.7422 -94.7728 213° Southwest 387 445 32,000  Level Fort Worth Center
08:21PM 34.6539 -94.8361 211° Southwest 380 437 32,000  Level Fort Worth Center
08:22PM 34.5614 -94.9044 211° Southwest 380 437 32,000  Level Fort Worth Center
08:23PM 34.4689 -94.9728 211° Southwest 386 444 32,000  Level Fort Worth Center
08:24PM 34.3764 -95.0408 211° Southwest 386 444 32,100  Climbing Fort Worth Center
08:25PM 34.2836 -95.1086 211° Southwest 386 444 32,100 -60 Level Fort Worth Center
08:26PM 34.1931 -95.1764 212° Southwest 386 444 32,000 -60 Descending Fort Worth Center
08:27PM 34.1006 -95.2464 212° Southwest 392 451 32,000  Level Fort Worth Center
08:28PM 34.0078 -95.3139 211° Southwest 392 451 32,000 -60 Level Fort Worth Center
08:29PM 33.9169 -95.3836 213° Southwest 392 451 31,900  Descending Fort Worth Center
08:30PM 33.8219 -95.4508 210° Southwest 392 451 32,000  Climbing Fort Worth Center
08:31PM 33.7292 -95.5178 211° Southwest 392 451 32,000  Level Fort Worth Center
08:32PM 33.6281 -95.5925 212° Southwest 391 450 32,100  Climbing Fort Worth Center
08:33PM 33.5350 -95.6617 212° Southwest 396 456 32,100  Level Fort Worth Center
08:34PM 33.4400 -95.7306 211° Southwest 401 461 32,100 -60 Level Fort Worth Center
08:35PM 33.3469 -95.7994 212° Southwest 401 461 32,000 -120 Descending Fort Worth Center
08:36PM 33.2478 -95.8683 210° Southwest 406 467 31,900 -60 Descending Fort Worth Center
08:37PM 33.1628 -95.9269 210° Southwest 401 461 31,900  Level Fort Worth Center
08:38PM 33.0697 -95.9981 213° Southwest 407 468 32,000 60 Climbing Fort Worth Center
08:39PM 32.9764 -96.0664 212° Southwest 401 461 32,100  Climbing Fort Worth Center
08:40PM 32.8811 -96.1319 210° Southwest 401 461 32,100 -60 Level Fort Worth Center
08:41PM 32.7858 -96.2025 212° Southwest 401 461 32,000 -120 Descending Fort Worth Center
08:42PM 32.6800 -96.2756 210° Southwest 401 461 31,900 -60 Descending Fort Worth Center
08:43PM 32.5844 -96.3408 210° Southwest 401 461 31,900  Level Fort Worth Center
08:44PM 32.4911 -96.4086 211° Southwest 401 461 32,000  Climbing Fort Worth Center
08:45PM 32.3956 -96.4783 212° Southwest 401 461 32,000 -300 Level Fort Worth Center
08:46PM 32.2958 -96.5408 208° Southwest 401 461 31,500 -900 Descending Fort Worth Center
08:47PM 32.1919 -96.6033 207° Southwest 412 474 30,200 -1,320 Descending Fort Worth Center
08:48PM 32.0881 -96.6681 208° Southwest 418 481 28,900 -1,200 Descending Fort Worth Center
08:49PM 32.0006 -96.7250 209° Southwest 418 481 27,800 -1,320 Descending Fort Worth Center
08:50PM 31.8925 -96.7944 209° Southwest 407 468 26,300 -1,440 Descending Fort Worth Center
08:51PM 31.7944 -96.8536 207° Southwest 405 466 25,000 -1,320 Descending Fort Worth Center
08:53PM 31.5794 -96.9836 207° Southwest 388 447 22,200 -1,380 Descending Houston Center
08:54PM 31.4808 -97.0333 203° Southwest 384 442 20,600 -1,620 Descending Houston Center
08:55PM 31.3822 -97.0817 203° Southwest 380 437 19,000 -1,500 Descending Houston Center
08:56PM 31.2839 -97.1311 203° Southwest 380 437 17,600 -1,500 Descending Houston Center
08:58PM 31.1844 -97.1800 203° Southwest 383 441 16,000 -1,620 Descending Houston Center
08:59PM 31.0867 -97.2283 203° Southwest 379 436 14,400 -1,440 Descending Houston Center
09:00PM 30.9925 -97.2756 203° Southwest 371 427 13,100 -720 Descending Houston Center
09:01PM 30.8903 -97.3256 203° Southwest 358 412 13,000 -240 Descending Houston Center
09:02PM 30.8006 -97.3611 199° South 343 395 12,700 -660 Descending Houston Center
09:03PM 30.7203 -97.3792 191° South 295 339 11,700 -1,200 Descending Houston Center
09:04PM 30.6425 -97.3961 191° South 285 328 10,300 -1,500 Descending Houston Center
09:05PM 30.5661 -97.4122 190° South 278 320 8,700 -1,560 Descending Houston Center
09:06PM 30.4908 -97.4294 191° South 274 315 7,200 -1,500 Descending Houston Center
09:07PM 30.4167 -97.4458 191° South 269 310 5,700 -1,260 Descending Houston Center
09:08PM 30.3431 -97.4639 192° South 269 310 4,700 -1,200 Descending Houston Center
09:09PM 30.2703 -97.4861 195° South 267 307 3,300 -1,200 Descending Houston Center
09:10PM 30.2011 -97.5225 204° Southwest 267 307 2,300 -660 Descending Houston Center
09:11PM 30.1483 -97.5664 216° Southwest 236 272 2,000 -300 Descending Houston Center